OJAQOJAI

Guest
Details From OJAQ - Aqaba King Hussein Intl
To OJAI - Queen Alia Intl
Flight Number -
Tags Generated
Created
Modified
Stats Distance 137 nm / 253 km
Max Altitude 0 ft / 0 m
Waypoints 2
Social Downloads 4
Likes 0
Share VATSIM

Download

Looking for another format? Having issues loading an existing format? Contact us
Advertisement - Login to hide

Notes

Generated

Route

OJAQ OJAI

ID Type Via Altitude Latitude Longitude Leg Dist Tot Dist Heading (true) Name
O OJAQ APT - 0 ft / 0 m 29.59805˚ 35.01332˚ - 0 nm - -
O OJAI APT - 0 ft / 0 m 31.71439˚ 35.98059˚ 136 nm 136 nm 21° / 22° -

Altitude Profile

Advertisement - Login to hide

OJAQ

Details ICAO OJAQ (AQJ)
Name AQABA KING HUSSEIN INTL
Region Jordan and the West Bank
Timezone Asia/Amman (UTC+2.0)
Stats Elevation 175 ft / 53 m (AMSL)
Location 29.611006° 35.017851°
Runways 1
Magnetic Variation 4.436° E

METAR

OJAQ 180900Z 36006KT CAVOK 22/02 Q1020 NOSIG

Decode

TAF

TAF OJAQ 180500Z 1806/1912 36006KT CAVOK BECMG 1809/1811 8000 SCT150

Decode

Departure Runways

ID Width Length Bearing (true) Bearing (mag) Surface Threshold Offset Overrun Length
01 148 ft / 45 m 9,885 ft / 3,013 m 16.91° 12.47° Asphalt 0 ft / 0 m 0 ft / 0 m
19 148 ft / 45 m 9,885 ft / 3,013 m 196.91° 192.47° Asphalt 0 ft / 0 m 656 ft / 200 m

OJAI

Details ICAO OJAI (AMM)
Name QUEEN ALIA INTL
Region Jordan and the West Bank
Timezone Asia/Amman (UTC+2.0)
Stats Elevation 2,395 ft / 730 m (AMSL)
Location 31.723310° 35.994046°
Runways 2
Magnetic Variation 4.661° E

METAR

OJAI 180900Z 16008KT 6000 NSC 20/01 Q1022 NOSIG

Decode

TAF

TAF OJAI 180500Z 1806/1912 04005KT 5000 HZ SCT140 PROB30 TEMPO 1808/1812 4000 -RA SCT090 BKN140 BECMG 1812/1814 16008KT 7000 BKN100

Decode

Destination Runways

ID Width Length Bearing (true) Bearing (mag) Surface Threshold Offset Overrun Length
08L 200 ft / 61 m 11,948 ft / 3,642 m 80.34° 75.68° Asphalt 0 ft / 0 m 490 ft / 149 m
08R 200 ft / 61 m 11,943 ft / 3,640 m 80.35° 75.69° Concrete 0 ft / 0 m 530 ft / 162 m
26L 200 ft / 61 m 11,943 ft / 3,640 m 260.37° 255.71° Concrete 0 ft / 0 m 500 ft / 152 m
26R 200 ft / 61 m 11,948 ft / 3,642 m 260.36° 255.70° Asphalt 0 ft / 0 m 492 ft / 150 m

Approach Navaids

Runway Type Ident Frequency Range Bearing (true) Bearing (mag) Slope Elevation
08L Localiser IQAN 109.30 MHz 18 nm / 33 km 80.37° 75.70° - 2,399 ft / 731 m (AMSL)
08L Glidescope IQAN 109.30 MHz 10 nm / 19 km 80.35° 75.69° 3.00° 2,537 ft / 773 m (AMSL)
26L Localiser IQA 110.90 MHz 18 nm / 33 km 260.35° 255.69° - 2,356 ft / 718 m (AMSL)
26L Glidescope IQA 110.90 MHz 10 nm / 19 km 260.36° 255.70° 3.00° 2,395 ft / 730 m (AMSL)
26R Localiser IQAR 111.10 MHz 18 nm / 33 km 260.31° 255.65° - 2,393 ft / 729 m (AMSL)
26R Glidescope IQAR 111.10 MHz 10 nm / 19 km 260.35° 255.69° 3.00° 2,393 ft / 729 m (AMSL)

Popular Alternatives